Athelstane, Wisconsin
Current Conditions -  °F | °C
As of 3:54 PM on Sunday 23 Nov 2014 (Local Time) from KIMT Reporting Station
Moderate Fog Moderate Fog  
Wind Chill:   Ceiling: 100
Heat Index:   Visibility: 0mi
Dew Point:   Wind: 5mph
Humidity: 100%   Direction: 130°SE
Pressure: 29.43"   Gusts: NA
Location:  45.42°N, 88.1°W
Report Text: KIMT 232154Z AUTO 13004KT M1/4SM FG VV001 05/05 A2943 RMK AO2 SLP976 T00500050
Loading
Personal Weather Stations






























Interactive Weather Map New forecast layout! Learn more

10-Day Weather Forecast

Advertisements
Track Severe Weather on mobile